sensor_id;sensor_type;location;lat;lon;timestamp;P1;durP1;ratioP1;P2;durP2;ratioP2
64641;SDS011;59936;51.490;5.436;2024-02-21T00:02:48;14.90;;;5.40;;
64641;SDS011;59936;51.490;5.436;2024-02-21T00:05:15;12.40;;;6.50;;
64641;SDS011;59936;51.490;5.436;2024-02-21T00:07:42;11.60;;;6.20;;
64641;SDS011;59936;51.490;5.436;2024-02-21T00:10:08;10.10;;;5.00;;
64641;SDS011;59936;51.490;5.436;2024-02-21T00:15:02;14.30;;;5.10;;
64641;SDS011;59936;51.490;5.436;2024-02-21T00:17:29;13.90;;;6.20;;
64641;SDS011;59936;51.490;5.436;2024-02-21T00:19:56;15.00;;;7.20;;
64641;SDS011;59936;51.490;5.436;2024-02-21T00:22:23;10.00;;;5.20;;
64641;SDS011;59936;51.490;5.436;2024-02-21T00:27:16;15.60;;;5.80;;
64641;SDS011;59936;51.490;5.436;2024-02-21T00:29:43;15.10;;;7.00;;
64641;SDS011;59936;51.490;5.436;2024-02-21T00:32:10;16.90;;;7.20;;
64641;SDS011;59936;51.490;5.436;2024-02-21T00:34:37;16.30;;;6.60;;
64641;SDS011;59936;51.490;5.436;2024-02-21T00:39:30;16.80;;;6.20;;
64641;SDS011;59936;51.490;5.436;2024-02-21T00:41:57;15.90;;;6.70;;
64641;SDS011;59936;51.490;5.436;2024-02-21T00:44:24;15.30;;;6.60;;
64641;SDS011;59936;51.490;5.436;2024-02-21T00:46:51;21.40;;;6.80;;
64641;SDS011;59936;51.490;5.436;2024-02-21T00:51:44;12.20;;;5.50;;
64641;SDS011;59936;51.490;5.436;2024-02-21T00:54:11;12.50;;;5.50;;
64641;SDS011;59936;51.490;5.436;2024-02-21T00:56:38;15.60;;;5.90;;
64641;SDS011;59936;51.490;5.436;2024-02-21T00:59:05;13.60;;;6.80;;
64641;SDS011;59936;51.490;5.436;2024-02-21T01:07:39;13.00;;;6.60;;
64641;SDS011;59936;51.490;5.436;2024-02-21T01:10:06;13.00;;;5.30;;
64641;SDS011;59936;51.490;5.436;2024-02-21T01:12:34;13.20;;;5.10;;
64641;SDS011;59936;51.490;5.436;2024-02-21T01:15:01;10.90;;;5.70;;
64641;SDS011;59936;51.490;5.436;2024-02-21T01:17:28;12.10;;;6.00;;
64641;SDS011;59936;51.490;5.436;2024-02-21T01:19:55;11.00;;;5.50;;
64641;SDS011;59936;51.490;5.436;2024-02-21T01:22:22;11.40;;;5.10;;
64641;SDS011;59936;51.490;5.436;2024-02-21T01:24:49;14.50;;;6.60;;
64641;SDS011;59936;51.490;5.436;2024-02-21T01:27:15;13.80;;;6.60;;
64641;SDS011;59936;51.490;5.436;2024-02-21T01:29:42;14.50;;;7.30;;
64641;SDS011;59936;51.490;5.436;2024-02-21T01:32:09;11.50;;;6.00;;
64641;SDS011;59936;51.490;5.436;2024-02-21T01:34:36;12.70;;;6.00;;
64641;SDS011;59936;51.490;5.436;2024-02-21T01:37:03;16.10;;;7.50;;
64641;SDS011;59936;51.490;5.436;2024-02-21T01:39:30;18.20;;;7.20;;
64641;SDS011;59936;51.490;5.436;2024-02-21T01:41:57;17.00;;;6.50;;
64641;SDS011;59936;51.490;5.436;2024-02-21T01:44:24;12.00;;;6.40;;
64641;SDS011;59936;51.490;5.436;2024-02-21T01:46:52;16.90;;;8.00;;
64641;SDS011;59936;51.490;5.436;2024-02-21T01:49:19;14.10;;;6.10;;
64641;SDS011;59936;51.490;5.436;2024-02-21T01:51:48;9.10;;;5.30;;
64641;SDS011;59936;51.490;5.436;2024-02-21T01:54:15;10.30;;;5.20;;
64641;SDS011;59936;51.490;5.436;2024-02-21T01:56:44;12.60;;;5.50;;
64641;SDS011;59936;51.490;5.436;2024-02-21T01:59:13;10.70;;;5.30;;
64641;SDS011;59936;51.490;5.436;2024-02-21T02:01:44;12.60;;;5.90;;
64641;SDS011;59936;51.490;5.436;2024-02-21T02:04:13;12.00;;;6.00;;
64641;SDS011;59936;51.490;5.436;2024-02-21T02:06:40;13.70;;;5.80;;
64641;SDS011;59936;51.490;5.436;2024-02-21T02:09:08;13.50;;;6.00;;
64641;SDS011;59936;51.490;5.436;2024-02-21T02:11:35;12.10;;;5.50;;
64641;SDS011;59936;51.490;5.436;2024-02-21T02:14:02;12.00;;;4.10;;
64641;SDS011;59936;51.490;5.436;2024-02-21T02:16:29;10.10;;;4.30;;
64641;SDS011;59936;51.490;5.436;2024-02-21T02:18:56;10.50;;;5.30;;
64641;SDS011;59936;51.490;5.436;2024-02-21T02:21:24;10.90;;;4.90;;
64641;SDS011;59936;51.490;5.436;2024-02-21T02:24:05;11.10;;;5.20;;
64641;SDS011;59936;51.490;5.436;2024-02-21T02:26:32;16.60;;;6.00;;
64641;SDS011;59936;51.490;5.436;2024-02-21T02:29:01;11.60;;;5.50;;
64641;SDS011;59936;51.490;5.436;2024-02-21T02:31:28;13.10;;;5.20;;
64641;SDS011;59936;51.490;5.436;2024-02-21T02:33:55;9.50;;;5.20;;
64641;SDS011;59936;51.490;5.436;2024-02-21T02:36:22;9.80;;;5.60;;
64641;SDS011;59936;51.490;5.436;2024-02-21T02:38:49;11.40;;;5.30;;
64641;SDS011;59936;51.490;5.436;2024-02-21T02:41:16;11.70;;;6.10;;
64641;SDS011;59936;51.490;5.436;2024-02-21T02:43:42;11.90;;;5.80;;
64641;SDS011;59936;51.490;5.436;2024-02-21T02:46:09;7.70;;;4.00;;
64641;SDS011;59936;51.490;5.436;2024-02-21T02:48:36;9.50;;;4.10;;
64641;SDS011;59936;51.490;5.436;2024-02-21T02:51:03;8.50;;;5.00;;
64641;SDS011;59936;51.490;5.436;2024-02-21T02:53:30;12.50;;;4.90;;
64641;SDS011;59936;51.490;5.436;2024-02-21T02:55:57;8.70;;;4.50;;
64641;SDS011;59936;51.490;5.436;2024-02-21T02:58:24;9.80;;;5.40;;
64641;SDS011;59936;51.490;5.436;2024-02-21T03:00:50;11.50;;;5.70;;
64641;SDS011;59936;51.490;5.436;2024-02-21T03:03:17;7.90;;;4.30;;
64641;SDS011;59936;51.490;5.436;2024-02-21T03:05:44;9.60;;;4.70;;
64641;SDS011;59936;51.490;5.436;2024-02-21T03:08:12;9.60;;;4.70;;
64641;SDS011;59936;51.490;5.436;2024-02-21T03:10:39;10.40;;;4.50;;
64641;SDS011;59936;51.490;5.436;2024-02-21T03:13:06;10.30;;;4.90;;
64641;SDS011;59936;51.490;5.436;2024-02-21T03:15:33;8.60;;;3.60;;
64641;SDS011;59936;51.490;5.436;2024-02-21T03:18:00;10.80;;;5.00;;
64641;SDS011;59936;51.490;5.436;2024-02-21T03:20:27;10.20;;;4.50;;
64641;SDS011;59936;51.490;5.436;2024-02-21T03:22:54;10.10;;;5.10;;
64641;SDS011;59936;51.490;5.436;2024-02-21T03:25:20;9.80;;;4.30;;
64641;SDS011;59936;51.490;5.436;2024-02-21T03:27:47;7.90;;;5.00;;
64641;SDS011;59936;51.490;5.436;2024-02-21T03:30:14;8.90;;;5.00;;
64641;SDS011;59936;51.490;5.436;2024-02-21T03:32:41;9.10;;;4.20;;
64641;SDS011;59936;51.490;5.436;2024-02-21T03:35:08;10.40;;;4.80;;
64641;SDS011;59936;51.490;5.436;2024-02-21T03:37:35;7.80;;;4.40;;
64641;SDS011;59936;51.490;5.436;2024-02-21T03:40:02;10.00;;;5.30;;
64641;SDS011;59936;51.490;5.436;2024-02-21T03:42:37;10.40;;;5.00;;
64641;SDS011;59936;51.490;5.436;2024-02-21T03:45:05;9.20;;;4.90;;
64641;SDS011;59936;51.490;5.436;2024-02-21T03:47:32;9.40;;;4.40;;
64641;SDS011;59936;51.490;5.436;2024-02-21T03:49:59;10.80;;;5.00;;
64641;SDS011;59936;51.490;5.436;2024-02-21T03:52:26;10.50;;;4.80;;
64641;SDS011;59936;51.490;5.436;2024-02-21T03:54:53;10.90;;;5.10;;
64641;SDS011;59936;51.490;5.436;2024-02-21T03:57:20;8.20;;;4.00;;
64641;SDS011;59936;51.490;5.436;2024-02-21T03:59:50;9.80;;;4.40;;
64641;SDS011;59936;51.490;5.436;2024-02-21T04:02:17;9.20;;;5.10;;
64641;SDS011;59936;51.490;5.436;2024-02-21T04:04:44;8.90;;;5.00;;
64641;SDS011;59936;51.490;5.436;2024-02-21T04:07:11;10.30;;;4.90;;
64641;SDS011;59936;51.490;5.436;2024-02-21T04:09:41;13.60;;;5.80;;
64641;SDS011;59936;51.490;5.436;2024-02-21T04:12:08;7.20;;;4.10;;
64641;SDS011;59936;51.490;5.436;2024-02-21T04:14:35;10.00;;;4.00;;
64641;SDS011;59936;51.490;5.436;2024-02-21T04:17:02;8.10;;;4.50;;
64641;SDS011;59936;51.490;5.436;2024-02-21T04:19:29;10.70;;;4.60;;
64641;SDS011;59936;51.490;5.436;2024-02-21T04:21:56;11.10;;;4.30;;
64641;SDS011;59936;51.490;5.436;2024-02-21T04:24:22;14.10;;;6.00;;
64641;SDS011;59936;51.490;5.436;2024-02-21T04:26:49;9.60;;;4.90;;
64641;SDS011;59936;51.490;5.436;2024-02-21T04:29:16;12.10;;;6.20;;
64641;SDS011;59936;51.490;5.436;2024-02-21T04:31:43;10.80;;;5.90;;
64641;SDS011;59936;51.490;5.436;2024-02-21T04:34:10;11.00;;;6.70;;
64641;SDS011;59936;51.490;5.436;2024-02-21T04:36:37;14.00;;;6.20;;
64641;SDS011;59936;51.490;5.436;2024-02-21T04:39:04;13.90;;;6.80;;
64641;SDS011;59936;51.490;5.436;2024-02-21T04:41:30;11.10;;;5.20;;
64641;SDS011;59936;51.490;5.436;2024-02-21T04:43:57;11.00;;;5.50;;
64641;SDS011;59936;51.490;5.436;2024-02-21T04:46:24;15.00;;;6.10;;
64641;SDS011;59936;51.490;5.436;2024-02-21T04:48:51;16.00;;;7.80;;
64641;SDS011;59936;51.490;5.436;2024-02-21T04:51:18;15.00;;;6.30;;
64641;SDS011;59936;51.490;5.436;2024-02-21T04:53:45;13.40;;;6.80;;
64641;SDS011;59936;51.490;5.436;2024-02-21T04:56:12;9.80;;;4.70;;
64641;SDS011;59936;51.490;5.436;2024-02-21T04:58:39;17.70;;;6.80;;
64641;SDS011;59936;51.490;5.436;2024-02-21T05:01:06;13.30;;;5.60;;
64641;SDS011;59936;51.490;5.436;2024-02-21T05:03:33;16.50;;;5.90;;
64641;SDS011;59936;51.490;5.436;2024-02-21T05:06:00;14.10;;;6.20;;
64641;SDS011;59936;51.490;5.436;2024-02-21T05:08:27;18.20;;;9.00;;
64641;SDS011;59936;51.490;5.436;2024-02-21T05:10:54;13.50;;;6.20;;
64641;SDS011;59936;51.490;5.436;2024-02-21T05:13:20;15.30;;;6.80;;
64641;SDS011;59936;51.490;5.436;2024-02-21T05:15:48;18.30;;;7.10;;
64641;SDS011;59936;51.490;5.436;2024-02-21T05:18:14;14.50;;;5.60;;
64641;SDS011;59936;51.490;5.436;2024-02-21T05:20:41;13.50;;;6.00;;
64641;SDS011;59936;51.490;5.436;2024-02-21T05:23:08;12.40;;;6.40;;
64641;SDS011;59936;51.490;5.436;2024-02-21T05:25:35;15.00;;;7.60;;
64641;SDS011;59936;51.490;5.436;2024-02-21T05:28:02;13.90;;;7.60;;
64641;SDS011;59936;51.490;5.436;2024-02-21T05:30:29;11.10;;;5.40;;
64641;SDS011;59936;51.490;5.436;2024-02-21T05:32:56;10.90;;;5.90;;
64641;SDS011;59936;51.490;5.436;2024-02-21T05:35:26;10.90;;;5.60;;
64641;SDS011;59936;51.490;5.436;2024-02-21T05:37:54;13.10;;;6.50;;
64641;SDS011;59936;51.490;5.436;2024-02-21T05:40:21;13.40;;;5.90;;
64641;SDS011;59936;51.490;5.436;2024-02-21T05:42:48;12.80;;;5.10;;
64641;SDS011;59936;51.490;5.436;2024-02-21T05:45:15;13.40;;;5.80;;
64641;SDS011;59936;51.490;5.436;2024-02-21T05:47:42;9.90;;;5.30;;
64641;SDS011;59936;51.490;5.436;2024-02-21T05:50:09;16.40;;;6.10;;
64641;SDS011;59936;51.490;5.436;2024-02-21T05:52:36;13.20;;;6.60;;
64641;SDS011;59936;51.490;5.436;2024-02-21T05:55:03;14.10;;;7.50;;
64641;SDS011;59936;51.490;5.436;2024-02-21T05:57:32;12.70;;;5.60;;
64641;SDS011;59936;51.490;5.436;2024-02-21T05:59:59;11.30;;;5.50;;
64641;SDS011;59936;51.490;5.436;2024-02-21T06:02:28;14.70;;;6.40;;
64641;SDS011;59936;51.490;5.436;2024-02-21T06:04:55;13.10;;;6.00;;
64641;SDS011;59936;51.490;5.436;2024-02-21T06:07:22;10.50;;;6.30;;
64641;SDS011;59936;51.490;5.436;2024-02-21T06:09:49;14.80;;;6.80;;
64641;SDS011;59936;51.490;5.436;2024-02-21T06:12:16;12.60;;;6.40;;
64641;SDS011;59936;51.490;5.436;2024-02-21T06:14:42;15.00;;;6.80;;
64641;SDS011;59936;51.490;5.436;2024-02-21T06:17:09;12.60;;;6.50;;
64641;SDS011;59936;51.490;5.436;2024-02-21T06:19:36;11.60;;;5.50;;
64641;SDS011;59936;51.490;5.436;2024-02-21T06:22:08;9.90;;;5.00;;
64641;SDS011;59936;51.490;5.436;2024-02-21T06:24:35;7.90;;;4.40;;
64641;SDS011;59936;51.490;5.436;2024-02-21T06:27:03;10.30;;;5.20;;
64641;SDS011;59936;51.490;5.436;2024-02-21T06:29:33;15.50;;;7.20;;
64641;SDS011;59936;51.490;5.436;2024-02-21T06:32:01;11.60;;;4.80;;
64641;SDS011;59936;51.490;5.436;2024-02-21T06:34:28;10.50;;;4.80;;
64641;SDS011;59936;51.490;5.436;2024-02-21T06:36:55;11.30;;;5.70;;
64641;SDS011;59936;51.490;5.436;2024-02-21T06:39:22;13.50;;;6.70;;
64641;SDS011;59936;51.490;5.436;2024-02-21T06:41:49;15.80;;;6.50;;
64641;SDS011;59936;51.490;5.436;2024-02-21T06:44:18;15.90;;;8.20;;
64641;SDS011;59936;51.490;5.436;2024-02-21T06:46:45;11.20;;;6.70;;
64641;SDS011;59936;51.490;5.436;2024-02-21T06:49:11;14.10;;;6.60;;
64641;SDS011;59936;51.490;5.436;2024-02-21T06:51:38;10.70;;;5.80;;
64641;SDS011;59936;51.490;5.436;2024-02-21T06:54:05;10.50;;;5.50;;
64641;SDS011;59936;51.490;5.436;2024-02-21T06:56:32;16.30;;;6.90;;
64641;SDS011;59936;51.490;5.436;2024-02-21T06:58:59;10.40;;;5.90;;
64641;SDS011;59936;51.490;5.436;2024-02-21T07:01:26;14.00;;;6.70;;
64641;SDS011;59936;51.490;5.436;2024-02-21T07:03:53;13.80;;;7.40;;
64641;SDS011;59936;51.490;5.436;2024-02-21T07:06:20;12.90;;;6.40;;
64641;SDS011;59936;51.490;5.436;2024-02-21T07:08:46;12.80;;;6.80;;
64641;SDS011;59936;51.490;5.436;2024-02-21T07:11:13;12.50;;;7.10;;
64641;SDS011;59936;51.490;5.436;2024-02-21T07:13:41;11.00;;;5.40;;
64641;SDS011;59936;51.490;5.436;2024-02-21T07:16:07;15.20;;;7.40;;
64641;SDS011;59936;51.490;5.436;2024-02-21T07:18:34;12.90;;;6.00;;
64641;SDS011;59936;51.490;5.436;2024-02-21T07:21:01;16.80;;;7.20;;
64641;SDS011;59936;51.490;5.436;2024-02-21T07:23:28;14.30;;;6.60;;
64641;SDS011;59936;51.490;5.436;2024-02-21T07:25:55;13.70;;;6.70;;
64641;SDS011;59936;51.490;5.436;2024-02-21T07:28:22;15.60;;;6.80;;
64641;SDS011;59936;51.490;5.436;2024-02-21T07:30:49;15.40;;;7.10;;
64641;SDS011;59936;51.490;5.436;2024-02-21T07:33:16;10.70;;;6.30;;
64641;SDS011;59936;51.490;5.436;2024-02-21T07:35:42;10.90;;;5.80;;
64641;SDS011;59936;51.490;5.436;2024-02-21T07:38:09;16.90;;;7.10;;
64641;SDS011;59936;51.490;5.436;2024-02-21T07:40:36;13.60;;;6.00;;
64641;SDS011;59936;51.490;5.436;2024-02-21T07:43:03;12.10;;;6.30;;
64641;SDS011;59936;51.490;5.436;2024-02-21T07:45:30;13.50;;;6.20;;
64641;SDS011;59936;51.490;5.436;2024-02-21T07:47:57;13.40;;;7.20;;
64641;SDS011;59936;51.490;5.436;2024-02-21T07:50:24;15.50;;;6.40;;
64641;SDS011;59936;51.490;5.436;2024-02-21T07:52:50;12.20;;;7.00;;
64641;SDS011;59936;51.490;5.436;2024-02-21T07:55:17;12.20;;;6.40;;
64641;SDS011;59936;51.490;5.436;2024-02-21T07:57:44;8.80;;;5.50;;
64641;SDS011;59936;51.490;5.436;2024-02-21T08:00:11;16.70;;;8.40;;
64641;SDS011;59936;51.490;5.436;2024-02-21T08:02:38;12.80;;;6.60;;
64641;SDS011;59936;51.490;5.436;2024-02-21T08:05:05;10.50;;;5.70;;
64641;SDS011;59936;51.490;5.436;2024-02-21T08:07:32;11.80;;;6.90;;
64641;SDS011;59936;51.490;5.436;2024-02-21T08:09:59;14.00;;;6.50;;
64641;SDS011;59936;51.490;5.436;2024-02-21T08:12:26;12.20;;;6.10;;
64641;SDS011;59936;51.490;5.436;2024-02-21T08:14:53;11.60;;;4.80;;
64641;SDS011;59936;51.490;5.436;2024-02-21T08:17:20;11.30;;;6.10;;
64641;SDS011;59936;51.490;5.436;2024-02-21T08:19:47;11.60;;;6.80;;
64641;SDS011;59936;51.490;5.436;2024-02-21T08:22:14;10.20;;;5.70;;
64641;SDS011;59936;51.490;5.436;2024-02-21T08:24:41;9.20;;;5.70;;
64641;SDS011;59936;51.490;5.436;2024-02-21T08:27:08;8.80;;;5.50;;
64641;SDS011;59936;51.490;5.436;2024-02-21T08:29:35;9.40;;;4.80;;
64641;SDS011;59936;51.490;5.436;2024-02-21T08:32:02;9.60;;;5.10;;
64641;SDS011;59936;51.490;5.436;2024-02-21T08:34:29;9.00;;;4.40;;
64641;SDS011;59936;51.490;5.436;2024-02-21T08:36:56;11.10;;;4.90;;
64641;SDS011;59936;51.490;5.436;2024-02-21T08:39:22;11.00;;;6.10;;
64641;SDS011;59936;51.490;5.436;2024-02-21T08:41:49;8.50;;;4.00;;
64641;SDS011;59936;51.490;5.436;2024-02-21T08:44:16;8.80;;;5.00;;
64641;SDS011;59936;51.490;5.436;2024-02-21T08:46:43;10.10;;;6.70;;
64641;SDS011;59936;51.490;5.436;2024-02-21T08:49:10;11.00;;;5.60;;
64641;SDS011;59936;51.490;5.436;2024-02-21T08:51:37;11.00;;;7.10;;
64641;SDS011;59936;51.490;5.436;2024-02-21T08:54:04;10.00;;;5.70;;
64641;SDS011;59936;51.490;5.436;2024-02-21T08:56:30;8.70;;;4.10;;
64641;SDS011;59936;51.490;5.436;2024-02-21T08:58:57;12.70;;;6.50;;
64641;SDS011;59936;51.490;5.436;2024-02-21T09:01:25;11.00;;;6.10;;
64641;SDS011;59936;51.490;5.436;2024-02-21T09:03:53;10.50;;;6.30;;
64641;SDS011;59936;51.490;5.436;2024-02-21T09:06:19;9.20;;;5.10;;
64641;SDS011;59936;51.490;5.436;2024-02-21T09:08:46;7.90;;;5.20;;
64641;SDS011;59936;51.490;5.436;2024-02-21T09:11:14;10.00;;;5.10;;
64641;SDS011;59936;51.490;5.436;2024-02-21T09:13:41;11.20;;;5.70;;
64641;SDS011;59936;51.490;5.436;2024-02-21T09:16:08;8.90;;;5.30;;
64641;SDS011;59936;51.490;5.436;2024-02-21T09:18:34;9.20;;;6.40;;
64641;SDS011;59936;51.490;5.436;2024-02-21T09:21:01;8.40;;;6.00;;
64641;SDS011;59936;51.490;5.436;2024-02-21T09:23:28;10.00;;;7.00;;
64641;SDS011;59936;51.490;5.436;2024-02-21T09:25:55;10.90;;;7.10;;
64641;SDS011;59936;51.490;5.436;2024-02-21T09:28:22;9.80;;;6.20;;
64641;SDS011;59936;51.490;5.436;2024-02-21T09:30:49;9.60;;;5.00;;
64641;SDS011;59936;51.490;5.436;2024-02-21T09:33:16;9.30;;;6.00;;
64641;SDS011;59936;51.490;5.436;2024-02-21T09:35:43;10.10;;;6.30;;
64641;SDS011;59936;51.490;5.436;2024-02-21T09:38:09;11.80;;;7.10;;
64641;SDS011;59936;51.490;5.436;2024-02-21T09:40:37;11.70;;;7.70;;
64641;SDS011;59936;51.490;5.436;2024-02-21T09:43:04;12.60;;;8.00;;
64641;SDS011;59936;51.490;5.436;2024-02-21T09:45:32;10.80;;;5.80;;
64641;SDS011;59936;51.490;5.436;2024-02-21T09:48:11;11.50;;;6.60;;
64641;SDS011;59936;51.490;5.436;2024-02-21T09:51:02;12.30;;;6.70;;
64641;SDS011;59936;51.490;5.436;2024-02-21T09:53:31;12.00;;;6.80;;
64641;SDS011;59936;51.490;5.436;2024-02-21T09:56:05;12.50;;;6.60;;
64641;SDS011;59936;51.490;5.436;2024-02-21T09:58:34;12.60;;;7.40;;
64641;SDS011;59936;51.490;5.436;2024-02-21T10:01:02;11.40;;;7.20;;
64641;SDS011;59936;51.490;5.436;2024-02-21T10:03:29;14.90;;;7.40;;
64641;SDS011;59936;51.490;5.436;2024-02-21T10:05:56;12.30;;;6.30;;
64641;SDS011;59936;51.490;5.436;2024-02-21T10:08:23;9.80;;;5.50;;
64641;SDS011;59936;51.490;5.436;2024-02-21T10:10:50;13.10;;;7.50;;
64641;SDS011;59936;51.490;5.436;2024-02-21T10:13:26;10.10;;;5.80;;
64641;SDS011;59936;51.490;5.436;2024-02-21T10:18:33;10.20;;;6.20;;
64641;SDS011;59936;51.490;5.436;2024-02-21T10:23:42;10.70;;;5.10;;
64641;SDS011;59936;51.490;5.436;2024-02-21T10:26:15;11.30;;;5.10;;
64641;SDS011;59936;51.490;5.436;2024-02-21T10:28:45;11.50;;;5.40;;
64641;SDS011;59936;51.490;5.436;2024-02-21T10:31:24;11.00;;;5.30;;
64641;SDS011;59936;51.490;5.436;2024-02-21T10:33:53;12.70;;;5.20;;
64641;SDS011;59936;51.490;5.436;2024-02-21T10:36:26;10.20;;;5.00;;
64641;SDS011;59936;51.490;5.436;2024-02-21T10:38:53;10.40;;;5.10;;
64641;SDS011;59936;51.490;5.436;2024-02-21T10:41:20;8.30;;;4.70;;
64641;SDS011;59936;51.490;5.436;2024-02-21T10:43:49;10.00;;;5.10;;
64641;SDS011;59936;51.490;5.436;2024-02-21T10:46:19;11.30;;;5.20;;
64641;SDS011;59936;51.490;5.436;2024-02-21T10:48:53;11.70;;;5.70;;
64641;SDS011;59936;51.490;5.436;2024-02-21T10:51:36;9.50;;;5.40;;
64641;SDS011;59936;51.490;5.436;2024-02-21T10:54:22;12.20;;;5.50;;
64641;SDS011;59936;51.490;5.436;2024-02-21T10:57:01;7.90;;;4.50;;
64641;SDS011;59936;51.490;5.436;2024-02-21T10:59:32;11.40;;;5.10;;
64641;SDS011;59936;51.490;5.436;2024-02-21T11:02:00;9.80;;;5.60;;
64641;SDS011;59936;51.490;5.436;2024-02-21T11:04:27;9.30;;;4.90;;
64641;SDS011;59936;51.490;5.436;2024-02-21T11:06:56;9.20;;;5.00;;
64641;SDS011;59936;51.490;5.436;2024-02-21T11:09:29;7.40;;;4.70;;
64641;SDS011;59936;51.490;5.436;2024-02-21T11:11:58;11.80;;;4.90;;
64641;SDS011;59936;51.490;5.436;2024-02-21T11:14:31;6.10;;;4.10;;
64641;SDS011;59936;51.490;5.436;2024-02-21T11:16:58;8.80;;;4.50;;
64641;SDS011;59936;51.490;5.436;2024-02-21T11:19:26;10.40;;;6.00;;
64641;SDS011;59936;51.490;5.436;2024-02-21T11:21:56;8.80;;;4.60;;
64641;SDS011;59936;51.490;5.436;2024-02-21T11:27:11;8.60;;;4.90;;
64641;SDS011;59936;51.490;5.436;2024-02-21T11:32:19;7.70;;;4.10;;
64641;SDS011;59936;51.490;5.436;2024-02-21T11:37:29;9.30;;;4.40;;
64641;SDS011;59936;51.490;5.436;2024-02-21T11:40:01;7.40;;;4.40;;
64641;SDS011;59936;51.490;5.436;2024-02-21T11:42:29;9.80;;;4.80;;
64641;SDS011;59936;51.490;5.436;2024-02-21T11:44:57;9.20;;;4.70;;
64641;SDS011;59936;51.490;5.436;2024-02-21T11:47:27;8.50;;;5.10;;
64641;SDS011;59936;51.490;5.436;2024-02-21T11:49:55;7.50;;;4.40;;
64641;SDS011;59936;51.490;5.436;2024-02-21T11:52:22;7.40;;;4.30;;
64641;SDS011;59936;51.490;5.436;2024-02-21T11:54:51;10.90;;;4.60;;
64641;SDS011;59936;51.490;5.436;2024-02-21T11:57:20;6.80;;;4.20;;
64641;SDS011;59936;51.490;5.436;2024-02-21T11:59:47;8.30;;;5.10;;
64641;SDS011;59936;51.490;5.436;2024-02-21T12:02:14;9.70;;;5.20;;
64641;SDS011;59936;51.490;5.436;2024-02-21T12:04:41;12.20;;;4.70;;
64641;SDS011;59936;51.490;5.436;2024-02-21T12:07:10;9.80;;;5.10;;
64641;SDS011;59936;51.490;5.436;2024-02-21T12:09:37;8.40;;;3.60;;
64641;SDS011;59936;51.490;5.436;2024-02-21T12:12:07;7.70;;;4.10;;
64641;SDS011;59936;51.490;5.436;2024-02-21T12:14:34;8.60;;;4.30;;
64641;SDS011;59936;51.490;5.436;2024-02-21T12:17:02;7.60;;;4.20;;
64641;SDS011;59936;51.490;5.436;2024-02-21T12:19:30;9.80;;;4.40;;
64641;SDS011;59936;51.490;5.436;2024-02-21T12:21:59;7.10;;;4.40;;
64641;SDS011;59936;51.490;5.436;2024-02-21T12:24:27;7.20;;;3.40;;
64641;SDS011;59936;51.490;5.436;2024-02-21T12:26:55;9.40;;;5.00;;
64641;SDS011;59936;51.490;5.436;2024-02-21T12:29:23;7.80;;;3.80;;
64641;SDS011;59936;51.490;5.436;2024-02-21T12:31:51;7.80;;;4.10;;
64641;SDS011;59936;51.490;5.436;2024-02-21T12:34:18;10.90;;;5.00;;
64641;SDS011;59936;51.490;5.436;2024-02-21T12:39:12;9.10;;;4.80;;
64641;SDS011;59936;51.490;5.436;2024-02-21T12:41:40;9.10;;;4.30;;
64641;SDS011;59936;51.490;5.436;2024-02-21T12:44:08;7.50;;;4.00;;
64641;SDS011;59936;51.490;5.436;2024-02-21T12:46:37;8.50;;;4.50;;
64641;SDS011;59936;51.490;5.436;2024-02-21T12:49:04;11.00;;;4.50;;
64641;SDS011;59936;51.490;5.436;2024-02-21T12:51:31;8.00;;;3.30;;
64641;SDS011;59936;51.490;5.436;2024-02-21T12:53:58;7.40;;;4.20;;
64641;SDS011;59936;51.490;5.436;2024-02-21T12:56:26;10.50;;;4.40;;
64641;SDS011;59936;51.490;5.436;2024-02-21T12:58:53;9.90;;;3.80;;
64641;SDS011;59936;51.490;5.436;2024-02-21T13:01:20;7.10;;;3.30;;
64641;SDS011;59936;51.490;5.436;2024-02-21T13:03:47;11.30;;;4.40;;
64641;SDS011;59936;51.490;5.436;2024-02-21T13:06:14;7.50;;;3.30;;
64641;SDS011;59936;51.490;5.436;2024-02-21T13:08:41;11.20;;;4.60;;
64641;SDS011;59936;51.490;5.436;2024-02-21T13:11:08;9.40;;;3.80;;
64641;SDS011;59936;51.490;5.436;2024-02-21T13:16:02;7.20;;;3.90;;
64641;SDS011;59936;51.490;5.436;2024-02-21T13:18:29;7.70;;;3.60;;
64641;SDS011;59936;51.490;5.436;2024-02-21T13:20:56;11.40;;;4.00;;
64641;SDS011;59936;51.490;5.436;2024-02-21T13:23:23;7.00;;;3.60;;
64641;SDS011;59936;51.490;5.436;2024-02-21T13:28:16;7.60;;;3.90;;
64641;SDS011;59936;51.490;5.436;2024-02-21T13:30:43;7.40;;;3.30;;
64641;SDS011;59936;51.490;5.436;2024-02-21T13:33:10;8.50;;;3.60;;
64641;SDS011;59936;51.490;5.436;2024-02-21T13:35:37;7.20;;;3.20;;
64641;SDS011;59936;51.490;5.436;2024-02-21T13:38:04;7.00;;;3.50;;
64641;SDS011;59936;51.490;5.436;2024-02-21T13:40:30;4.90;;;2.50;;
64641;SDS011;59936;51.490;5.436;2024-02-21T13:42:57;7.70;;;2.90;;
64641;SDS011;59936;51.490;5.436;2024-02-21T13:45:24;5.70;;;3.00;;
64641;SDS011;59936;51.490;5.436;2024-02-21T13:47:51;4.60;;;2.40;;
64641;SDS011;59936;51.490;5.436;2024-02-21T13:50:18;5.60;;;3.30;;
64641;SDS011;59936;51.490;5.436;2024-02-21T13:52:49;4.40;;;2.80;;
64641;SDS011;59936;51.490;5.436;2024-02-21T13:55:16;4.80;;;3.30;;
64641;SDS011;59936;51.490;5.436;2024-02-21T13:57:43;6.00;;;3.20;;
64641;SDS011;59936;51.490;5.436;2024-02-21T14:00:10;7.50;;;3.00;;
64641;SDS011;59936;51.490;5.436;2024-02-21T14:05:04;5.40;;;3.60;;
64641;SDS011;59936;51.490;5.436;2024-02-21T14:07:32;8.10;;;3.80;;
64641;SDS011;59936;51.490;5.436;2024-02-21T14:09:59;7.20;;;3.40;;
64641;SDS011;59936;51.490;5.436;2024-02-21T14:12:26;7.60;;;3.40;;
64641;SDS011;59936;51.490;5.436;2024-02-21T14:17:19;5.70;;;3.40;;
64641;SDS011;59936;51.490;5.436;2024-02-21T14:19:46;9.10;;;3.90;;
64641;SDS011;59936;51.490;5.436;2024-02-21T14:22:13;6.20;;;3.50;;
64641;SDS011;59936;51.490;5.436;2024-02-21T14:24:40;6.80;;;3.30;;
64641;SDS011;59936;51.490;5.436;2024-02-21T14:27:07;7.10;;;3.30;;
64641;SDS011;59936;51.490;5.436;2024-02-21T14:29:34;6.50;;;3.70;;
64641;SDS011;59936;51.490;5.436;2024-02-21T14:32:01;8.40;;;3.40;;
64641;SDS011;59936;51.490;5.436;2024-02-21T14:34:28;8.00;;;3.50;;
64641;SDS011;59936;51.490;5.436;2024-02-21T14:36:55;7.50;;;3.60;;
64641;SDS011;59936;51.490;5.436;2024-02-21T14:39:21;7.50;;;3.50;;
64641;SDS011;59936;51.490;5.436;2024-02-21T14:41:48;6.90;;;4.30;;
64641;SDS011;59936;51.490;5.436;2024-02-21T14:44:15;6.10;;;3.10;;
64641;SDS011;59936;51.490;5.436;2024-02-21T14:46:42;6.60;;;3.50;;
64641;SDS011;59936;51.490;5.436;2024-02-21T14:49:09;6.30;;;3.30;;
64641;SDS011;59936;51.490;5.436;2024-02-21T14:51:36;8.00;;;3.60;;
64641;SDS011;59936;51.490;5.436;2024-02-21T14:54:03;6.40;;;2.90;;
64641;SDS011;59936;51.490;5.436;2024-02-21T14:56:30;7.60;;;3.30;;
64641;SDS011;59936;51.490;5.436;2024-02-21T14:58:57;8.50;;;4.10;;
64641;SDS011;59936;51.490;5.436;2024-02-21T15:01:24;7.00;;;4.10;;
64641;SDS011;59936;51.490;5.436;2024-02-21T15:03:51;9.60;;;3.70;;
64641;SDS011;59936;51.490;5.436;2024-02-21T15:06:18;9.00;;;4.10;;
64641;SDS011;59936;51.490;5.436;2024-02-21T15:08:44;7.70;;;3.60;;
64641;SDS011;59936;51.490;5.436;2024-02-21T15:11:11;9.70;;;4.00;;
64641;SDS011;59936;51.490;5.436;2024-02-21T15:13:38;10.80;;;4.30;;
64641;SDS011;59936;51.490;5.436;2024-02-21T15:18:32;8.60;;;4.10;;
64641;SDS011;59936;51.490;5.436;2024-02-21T15:20:59;8.40;;;3.90;;
64641;SDS011;59936;51.490;5.436;2024-02-21T15:23:26;6.90;;;3.80;;
64641;SDS011;59936;51.490;5.436;2024-02-21T15:25:53;7.70;;;3.90;;
64641;SDS011;59936;51.490;5.436;2024-02-21T15:28:19;6.60;;;4.00;;